sensor_id;sensor_type;location;lat;lon;timestamp;P1;durP1;ratioP1;P2;durP2;ratioP2
1082;SDS011;530;51.448;7.238;2022-11-18T00:01:32;2.43;;;1.80;;
1082;SDS011;530;51.448;7.238;2022-11-18T00:03:58;2.67;;;2.10;;
1082;SDS011;530;51.448;7.238;2022-11-18T00:06:25;3.93;;;2.20;;
1082;SDS011;530;51.448;7.238;2022-11-18T00:08:52;3.33;;;1.77;;
1082;SDS011;530;51.448;7.238;2022-11-18T00:11:19;5.00;;;2.13;;
1082;SDS011;530;51.448;7.238;2022-11-18T00:14:10;5.07;;;2.37;;
1082;SDS011;530;51.448;7.238;2022-11-18T00:19:11;4.13;;;1.80;;
1082;SDS011;530;51.448;7.238;2022-11-18T00:21:37;3.20;;;2.20;;
1082;SDS011;530;51.448;7.238;2022-11-18T00:24:03;3.37;;;2.10;;
1082;SDS011;530;51.448;7.238;2022-11-18T00:26:28;4.40;;;1.70;;
1082;SDS011;530;51.448;7.238;2022-11-18T00:28:54;3.80;;;2.43;;
1082;SDS011;530;51.448;7.238;2022-11-18T00:31:20;3.30;;;2.07;;
1082;SDS011;530;51.448;7.238;2022-11-18T00:33:45;4.90;;;1.97;;
1082;SDS011;530;51.448;7.238;2022-11-18T00:36:11;3.63;;;2.47;;
1082;SDS011;530;51.448;7.238;2022-11-18T00:38:37;4.23;;;2.07;;
1082;SDS011;530;51.448;7.238;2022-11-18T00:41:13;3.70;;;2.40;;
1082;SDS011;530;51.448;7.238;2022-11-18T00:43:40;3.87;;;1.90;;
1082;SDS011;530;51.448;7.238;2022-11-18T00:46:07;3.10;;;2.23;;
1082;SDS011;530;51.448;7.238;2022-11-18T00:48:34;3.10;;;1.90;;
1082;SDS011;530;51.448;7.238;2022-11-18T00:51:08;3.30;;;2.17;;
1082;SDS011;530;51.448;7.238;2022-11-18T00:53:40;4.53;;;2.47;;
1082;SDS011;530;51.448;7.238;2022-11-18T00:56:06;5.93;;;2.40;;
1082;SDS011;530;51.448;7.238;2022-11-18T00:58:33;5.47;;;1.83;;
1082;SDS011;530;51.448;7.238;2022-11-18T01:00:59;5.30;;;2.20;;
1082;SDS011;530;51.448;7.238;2022-11-18T01:03:24;3.70;;;2.13;;
1082;SDS011;530;51.448;7.238;2022-11-18T01:05:52;4.47;;;2.27;;
1082;SDS011;530;51.448;7.238;2022-11-18T01:08:18;3.73;;;2.33;;
1082;SDS011;530;51.448;7.238;2022-11-18T01:10:44;3.03;;;1.90;;
1082;SDS011;530;51.448;7.238;2022-11-18T01:13:11;4.03;;;2.03;;
1082;SDS011;530;51.448;7.238;2022-11-18T01:15:54;2.30;;;2.10;;
1082;SDS011;530;51.448;7.238;2022-11-18T01:18:23;2.70;;;1.90;;
1082;SDS011;530;51.448;7.238;2022-11-18T01:20:52;3.00;;;1.67;;
1082;SDS011;530;51.448;7.238;2022-11-18T01:23:18;3.80;;;2.13;;
1082;SDS011;530;51.448;7.238;2022-11-18T01:25:45;4.90;;;2.17;;
1082;SDS011;530;51.448;7.238;2022-11-18T01:28:12;2.73;;;2.00;;
1082;SDS011;530;51.448;7.238;2022-11-18T01:30:39;4.53;;;2.10;;
1082;SDS011;530;51.448;7.238;2022-11-18T01:33:06;5.03;;;2.30;;
1082;SDS011;530;51.448;7.238;2022-11-18T01:35:36;3.80;;;2.10;;
1082;SDS011;530;51.448;7.238;2022-11-18T01:38:03;4.00;;;2.13;;
1082;SDS011;530;51.448;7.238;2022-11-18T01:40:30;4.47;;;2.10;;
1082;SDS011;530;51.448;7.238;2022-11-18T01:42:57;7.40;;;2.10;;
1082;SDS011;530;51.448;7.238;2022-11-18T01:45:27;5.10;;;2.37;;
1082;SDS011;530;51.448;7.238;2022-11-18T01:48:12;4.40;;;1.97;;
1082;SDS011;530;51.448;7.238;2022-11-18T01:50:46;5.67;;;2.43;;
1082;SDS011;530;51.448;7.238;2022-11-18T01:53:20;2.70;;;2.10;;
1082;SDS011;530;51.448;7.238;2022-11-18T01:55:49;2.33;;;1.80;;
1082;SDS011;530;51.448;7.238;2022-11-18T01:58:22;3.53;;;1.87;;
1082;SDS011;530;51.448;7.238;2022-11-18T02:00:54;6.57;;;2.93;;
1082;SDS011;530;51.448;7.238;2022-11-18T02:03:21;4.07;;;2.00;;
1082;SDS011;530;51.448;7.238;2022-11-18T02:05:48;2.10;;;1.63;;
1082;SDS011;530;51.448;7.238;2022-11-18T02:08:14;2.30;;;1.67;;
1082;SDS011;530;51.448;7.238;2022-11-18T02:10:42;4.90;;;2.00;;
1082;SDS011;530;51.448;7.238;2022-11-18T02:13:08;2.90;;;1.57;;
1082;SDS011;530;51.448;7.238;2022-11-18T02:16:20;2.03;;;1.40;;
1082;SDS011;530;51.448;7.238;2022-11-18T02:18:39;2.20;;;1.43;;
1082;SDS011;530;51.448;7.238;2022-11-18T02:21:20;4.47;;;2.10;;
1082;SDS011;530;51.448;7.238;2022-11-18T02:24:27;3.43;;;1.70;;
1082;SDS011;530;51.448;7.238;2022-11-18T02:30:10;3.97;;;1.50;;
1082;SDS011;530;51.448;7.238;2022-11-18T02:32:41;2.60;;;1.37;;
1082;SDS011;530;51.448;7.238;2022-11-18T02:35:15;2.67;;;1.80;;
1082;SDS011;530;51.448;7.238;2022-11-18T02:37:55;3.90;;;1.40;;
1082;SDS011;530;51.448;7.238;2022-11-18T02:40:36;2.17;;;1.70;;
1082;SDS011;530;51.448;7.238;2022-11-18T02:43:12;3.13;;;1.70;;
1082;SDS011;530;51.448;7.238;2022-11-18T02:45:53;3.30;;;1.70;;
1082;SDS011;530;51.448;7.238;2022-11-18T02:48:24;3.43;;;1.73;;
1082;SDS011;530;51.448;7.238;2022-11-18T02:50:52;3.10;;;1.67;;
1082;SDS011;530;51.448;7.238;2022-11-18T02:53:19;2.43;;;1.80;;
1082;SDS011;530;51.448;7.238;2022-11-18T02:55:47;2.70;;;1.60;;
1082;SDS011;530;51.448;7.238;2022-11-18T02:58:15;3.93;;;1.93;;
1082;SDS011;530;51.448;7.238;2022-11-18T03:00:44;6.73;;;1.93;;
1082;SDS011;530;51.448;7.238;2022-11-18T03:03:24;3.40;;;1.73;;
1082;SDS011;530;51.448;7.238;2022-11-18T03:06:03;2.90;;;1.77;;
1082;SDS011;530;51.448;7.238;2022-11-18T03:08:38;2.50;;;1.50;;
1082;SDS011;530;51.448;7.238;2022-11-18T03:16:29;3.27;;;2.40;;
1082;SDS011;530;51.448;7.238;2022-11-18T03:22:08;4.60;;;1.63;;
1082;SDS011;530;51.448;7.238;2022-11-18T03:24:35;4.37;;;2.43;;
1082;SDS011;530;51.448;7.238;2022-11-18T03:27:16;2.70;;;1.60;;
1082;SDS011;530;51.448;7.238;2022-11-18T03:29:47;5.33;;;1.60;;
1082;SDS011;530;51.448;7.238;2022-11-18T03:32:20;4.13;;;1.90;;
1082;SDS011;530;51.448;7.238;2022-11-18T03:34:58;2.07;;;1.60;;
1082;SDS011;530;51.448;7.238;2022-11-18T03:37:32;3.67;;;2.30;;
1082;SDS011;530;51.448;7.238;2022-11-18T03:40:02;2.80;;;1.87;;
1082;SDS011;530;51.448;7.238;2022-11-18T03:42:50;5.27;;;2.00;;
1082;SDS011;530;51.448;7.238;2022-11-18T03:45:23;6.20;;;2.20;;
1082;SDS011;530;51.448;7.238;2022-11-18T03:48:06;2.73;;;1.90;;
1082;SDS011;530;51.448;7.238;2022-11-18T03:50:38;3.60;;;2.07;;
1082;SDS011;530;51.448;7.238;2022-11-18T03:53:08;3.47;;;1.87;;
1082;SDS011;530;51.448;7.238;2022-11-18T03:55:37;3.57;;;2.07;;
1082;SDS011;530;51.448;7.238;2022-11-18T03:58:10;4.10;;;2.17;;
1082;SDS011;530;51.448;7.238;2022-11-18T04:00:43;2.50;;;2.30;;
1082;SDS011;530;51.448;7.238;2022-11-18T04:03:12;2.30;;;1.90;;
1082;SDS011;530;51.448;7.238;2022-11-18T04:05:39;3.17;;;2.03;;
1082;SDS011;530;51.448;7.238;2022-11-18T04:08:08;3.37;;;2.53;;
1082;SDS011;530;51.448;7.238;2022-11-18T04:13:16;3.43;;;2.30;;
1082;SDS011;530;51.448;7.238;2022-11-18T04:15:52;3.20;;;2.30;;
1082;SDS011;530;51.448;7.238;2022-11-18T04:18:18;3.40;;;2.20;;
1082;SDS011;530;51.448;7.238;2022-11-18T04:20:44;2.40;;;1.83;;
1082;SDS011;530;51.448;7.238;2022-11-18T04:23:10;4.00;;;2.23;;
1082;SDS011;530;51.448;7.238;2022-11-18T04:25:35;4.67;;;2.47;;
1082;SDS011;530;51.448;7.238;2022-11-18T04:28:01;2.80;;;1.70;;
1082;SDS011;530;51.448;7.238;2022-11-18T04:30:27;5.00;;;1.93;;
1082;SDS011;530;51.448;7.238;2022-11-18T04:32:53;3.87;;;2.13;;
1082;SDS011;530;51.448;7.238;2022-11-18T04:35:19;3.63;;;2.03;;
1082;SDS011;530;51.448;7.238;2022-11-18T04:37:44;2.10;;;1.90;;
1082;SDS011;530;51.448;7.238;2022-11-18T04:40:10;9.50;;;2.30;;
1082;SDS011;530;51.448;7.238;2022-11-18T04:42:36;4.43;;;2.60;;
1082;SDS011;530;51.448;7.238;2022-11-18T04:45:02;3.70;;;2.00;;
1082;SDS011;530;51.448;7.238;2022-11-18T04:47:28;3.13;;;2.40;;
1082;SDS011;530;51.448;7.238;2022-11-18T04:49:54;4.33;;;2.30;;
1082;SDS011;530;51.448;7.238;2022-11-18T04:52:20;4.43;;;2.33;;
1082;SDS011;530;51.448;7.238;2022-11-18T04:54:46;3.10;;;2.17;;
1082;SDS011;530;51.448;7.238;2022-11-18T04:57:11;5.73;;;2.43;;
1082;SDS011;530;51.448;7.238;2022-11-18T04:59:37;3.73;;;2.20;;
1082;SDS011;530;51.448;7.238;2022-11-18T05:02:03;3.10;;;2.03;;
1082;SDS011;530;51.448;7.238;2022-11-18T05:04:30;3.03;;;2.30;;
1082;SDS011;530;51.448;7.238;2022-11-18T05:06:58;3.37;;;2.50;;
1082;SDS011;530;51.448;7.238;2022-11-18T05:09:25;4.50;;;2.40;;
1082;SDS011;530;51.448;7.238;2022-11-18T05:11:51;3.13;;;2.10;;
1082;SDS011;530;51.448;7.238;2022-11-18T05:14:36;3.47;;;2.00;;
1082;SDS011;530;51.448;7.238;2022-11-18T05:17:02;2.30;;;2.00;;
1082;SDS011;530;51.448;7.238;2022-11-18T05:19:29;4.07;;;2.40;;
1082;SDS011;530;51.448;7.238;2022-11-18T05:21:55;2.80;;;2.47;;
1082;SDS011;530;51.448;7.238;2022-11-18T05:24:20;3.37;;;1.77;;
1082;SDS011;530;51.448;7.238;2022-11-18T05:26:48;4.77;;;2.17;;
1082;SDS011;530;51.448;7.238;2022-11-18T05:29:18;3.20;;;2.10;;
1082;SDS011;530;51.448;7.238;2022-11-18T05:31:45;2.33;;;2.10;;
1082;SDS011;530;51.448;7.238;2022-11-18T05:34:11;4.00;;;2.00;;
1082;SDS011;530;51.448;7.238;2022-11-18T05:36:37;3.90;;;2.10;;
1082;SDS011;530;51.448;7.238;2022-11-18T05:39:02;6.30;;;2.07;;
1082;SDS011;530;51.448;7.238;2022-11-18T05:41:28;4.87;;;2.30;;
1082;SDS011;530;51.448;7.238;2022-11-18T05:44:13;3.30;;;2.30;;
1082;SDS011;530;51.448;7.238;2022-11-18T05:46:39;3.00;;;2.37;;
1082;SDS011;530;51.448;7.238;2022-11-18T05:49:04;3.37;;;2.30;;
1082;SDS011;530;51.448;7.238;2022-11-18T05:51:31;4.83;;;2.00;;
1082;SDS011;530;51.448;7.238;2022-11-18T05:53:57;3.30;;;1.90;;
1082;SDS011;530;51.448;7.238;2022-11-18T05:56:37;5.20;;;1.97;;
1082;SDS011;530;51.448;7.238;2022-11-18T05:59:04;4.00;;;2.37;;
1082;SDS011;530;51.448;7.238;2022-11-18T06:01:31;2.73;;;2.10;;
1082;SDS011;530;51.448;7.238;2022-11-18T06:04:07;3.47;;;1.90;;
1082;SDS011;530;51.448;7.238;2022-11-18T06:06:39;5.87;;;2.10;;
1082;SDS011;530;51.448;7.238;2022-11-18T06:09:06;4.13;;;2.60;;
1082;SDS011;530;51.448;7.238;2022-11-18T06:11:37;4.30;;;2.43;;
1082;SDS011;530;51.448;7.238;2022-11-18T06:14:15;5.00;;;2.90;;
1082;SDS011;530;51.448;7.238;2022-11-18T06:16:47;6.03;;;3.10;;
1082;SDS011;530;51.448;7.238;2022-11-18T06:19:16;5.60;;;2.80;;
1082;SDS011;530;51.448;7.238;2022-11-18T06:21:42;4.20;;;2.47;;
1082;SDS011;530;51.448;7.238;2022-11-18T06:24:08;4.10;;;2.50;;
1082;SDS011;530;51.448;7.238;2022-11-18T06:26:35;3.93;;;2.40;;
1082;SDS011;530;51.448;7.238;2022-11-18T06:29:02;5.80;;;3.03;;
1082;SDS011;530;51.448;7.238;2022-11-18T06:31:28;4.20;;;2.67;;
1082;SDS011;530;51.448;7.238;2022-11-18T06:33:54;4.53;;;2.33;;
1082;SDS011;530;51.448;7.238;2022-11-18T06:36:20;3.60;;;2.27;;
1082;SDS011;530;51.448;7.238;2022-11-18T06:38:45;2.90;;;2.63;;
1082;SDS011;530;51.448;7.238;2022-11-18T06:41:11;3.60;;;2.70;;
1082;SDS011;530;51.448;7.238;2022-11-18T06:43:37;4.67;;;2.70;;
1082;SDS011;530;51.448;7.238;2022-11-18T06:46:03;4.73;;;2.40;;
1082;SDS011;530;51.448;7.238;2022-11-18T06:48:48;4.73;;;2.93;;
1082;SDS011;530;51.448;7.238;2022-11-18T06:51:15;5.60;;;2.90;;
1082;SDS011;530;51.448;7.238;2022-11-18T06:53:40;3.73;;;2.63;;
1082;SDS011;530;51.448;7.238;2022-11-18T06:56:07;4.50;;;3.07;;
1082;SDS011;530;51.448;7.238;2022-11-18T06:58:34;3.67;;;2.67;;
1082;SDS011;530;51.448;7.238;2022-11-18T07:03:37;7.93;;;4.00;;
1082;SDS011;530;51.448;7.238;2022-11-18T07:06:03;9.27;;;4.07;;
1082;SDS011;530;51.448;7.238;2022-11-18T07:08:29;5.50;;;3.10;;
1082;SDS011;530;51.448;7.238;2022-11-18T07:10:55;4.53;;;3.50;;
1082;SDS011;530;51.448;7.238;2022-11-18T07:13:20;5.20;;;3.30;;
1082;SDS011;530;51.448;7.238;2022-11-18T07:15:46;6.60;;;3.80;;
1082;SDS011;530;51.448;7.238;2022-11-18T07:18:12;4.10;;;3.17;;
1082;SDS011;530;51.448;7.238;2022-11-18T07:20:37;7.10;;;3.67;;
1082;SDS011;530;51.448;7.238;2022-11-18T07:23:03;9.27;;;3.10;;
1082;SDS011;530;51.448;7.238;2022-11-18T07:25:28;4.10;;;2.77;;
1082;SDS011;530;51.448;7.238;2022-11-18T07:27:54;3.57;;;2.57;;
1082;SDS011;530;51.448;7.238;2022-11-18T07:30:20;3.43;;;2.90;;
1082;SDS011;530;51.448;7.238;2022-11-18T07:32:46;4.30;;;3.13;;
1082;SDS011;530;51.448;7.238;2022-11-18T07:35:11;4.63;;;2.97;;
1082;SDS011;530;51.448;7.238;2022-11-18T07:37:37;4.50;;;3.13;;
1082;SDS011;530;51.448;7.238;2022-11-18T07:40:03;4.90;;;3.00;;
1082;SDS011;530;51.448;7.238;2022-11-18T07:42:29;3.00;;;2.70;;
1082;SDS011;530;51.448;7.238;2022-11-18T07:45:07;6.77;;;3.10;;
1082;SDS011;530;51.448;7.238;2022-11-18T07:47:36;7.53;;;3.80;;
1082;SDS011;530;51.448;7.238;2022-11-18T07:50:02;11.37;;;5.63;;
1082;SDS011;530;51.448;7.238;2022-11-18T07:52:29;4.20;;;3.13;;
1082;SDS011;530;51.448;7.238;2022-11-18T07:54:55;5.70;;;3.43;;
1082;SDS011;530;51.448;7.238;2022-11-18T07:57:20;6.07;;;3.60;;
1082;SDS011;530;51.448;7.238;2022-11-18T07:59:46;4.17;;;3.77;;
1082;SDS011;530;51.448;7.238;2022-11-18T08:02:12;4.37;;;3.60;;
1082;SDS011;530;51.448;7.238;2022-11-18T08:04:37;4.60;;;3.33;;
1082;SDS011;530;51.448;7.238;2022-11-18T08:07:03;9.37;;;4.47;;
1082;SDS011;530;51.448;7.238;2022-11-18T08:09:29;11.50;;;4.37;;
1082;SDS011;530;51.448;7.238;2022-11-18T08:11:54;7.33;;;4.00;;
1082;SDS011;530;51.448;7.238;2022-11-18T08:14:20;5.33;;;3.87;;
1082;SDS011;530;51.448;7.238;2022-11-18T08:16:48;5.57;;;3.70;;
1082;SDS011;530;51.448;7.238;2022-11-18T08:19:14;3.93;;;3.30;;
1082;SDS011;530;51.448;7.238;2022-11-18T08:21:40;7.47;;;3.77;;
1082;SDS011;530;51.448;7.238;2022-11-18T08:24:05;6.67;;;3.73;;
1082;SDS011;530;51.448;7.238;2022-11-18T08:26:33;6.93;;;3.90;;
1082;SDS011;530;51.448;7.238;2022-11-18T08:28:59;8.50;;;3.77;;
1082;SDS011;530;51.448;7.238;2022-11-18T08:31:26;5.70;;;4.53;;
1082;SDS011;530;51.448;7.238;2022-11-18T08:33:55;4.00;;;3.60;;
1082;SDS011;530;51.448;7.238;2022-11-18T08:36:30;6.20;;;3.70;;
1082;SDS011;530;51.448;7.238;2022-11-18T08:38:57;6.27;;;3.73;;
1082;SDS011;530;51.448;7.238;2022-11-18T08:41:28;4.97;;;3.17;;
1082;SDS011;530;51.448;7.238;2022-11-18T08:43:56;5.60;;;3.90;;
1082;SDS011;530;51.448;7.238;2022-11-18T08:46:22;6.77;;;3.60;;
1082;SDS011;530;51.448;7.238;2022-11-18T08:48:48;6.00;;;3.67;;
1082;SDS011;530;51.448;7.238;2022-11-18T08:51:14;5.10;;;3.77;;
1082;SDS011;530;51.448;7.238;2022-11-18T08:53:40;6.20;;;4.03;;
1082;SDS011;530;51.448;7.238;2022-11-18T08:56:06;4.30;;;3.40;;
1082;SDS011;530;51.448;7.238;2022-11-18T08:58:36;4.43;;;3.40;;
1082;SDS011;530;51.448;7.238;2022-11-18T09:01:05;3.97;;;3.53;;
1082;SDS011;530;51.448;7.238;2022-11-18T09:03:31;6.10;;;3.70;;
1082;SDS011;530;51.448;7.238;2022-11-18T09:06:07;6.80;;;4.20;;
1082;SDS011;530;51.448;7.238;2022-11-18T09:08:34;4.40;;;3.40;;
1082;SDS011;530;51.448;7.238;2022-11-18T09:11:04;6.03;;;4.00;;
1082;SDS011;530;51.448;7.238;2022-11-18T09:13:33;5.73;;;3.70;;
1082;SDS011;530;51.448;7.238;2022-11-18T09:16:00;5.80;;;3.77;;
1082;SDS011;530;51.448;7.238;2022-11-18T09:18:26;5.00;;;3.70;;
1082;SDS011;530;51.448;7.238;2022-11-18T09:20:53;6.03;;;3.40;;
1082;SDS011;530;51.448;7.238;2022-11-18T09:23:20;4.23;;;3.83;;
1082;SDS011;530;51.448;7.238;2022-11-18T09:25:46;5.00;;;4.30;;
1082;SDS011;530;51.448;7.238;2022-11-18T09:28:12;5.57;;;3.97;;
1082;SDS011;530;51.448;7.238;2022-11-18T09:30:37;5.13;;;4.03;;
1082;SDS011;530;51.448;7.238;2022-11-18T09:33:03;4.20;;;3.80;;
1082;SDS011;530;51.448;7.238;2022-11-18T09:35:31;7.90;;;3.60;;
1082;SDS011;530;51.448;7.238;2022-11-18T09:37:57;7.97;;;4.27;;
1082;SDS011;530;51.448;7.238;2022-11-18T09:40:23;8.10;;;4.37;;
1082;SDS011;530;51.448;7.238;2022-11-18T09:47:48;5.47;;;4.60;;
1082;SDS011;530;51.448;7.238;2022-11-18T09:50:16;6.30;;;4.13;;
1082;SDS011;530;51.448;7.238;2022-11-18T09:55:27;5.07;;;4.10;;
1082;SDS011;530;51.448;7.238;2022-11-18T09:57:54;8.80;;;4.33;;
1082;SDS011;530;51.448;7.238;2022-11-18T10:00:23;9.57;;;4.73;;
1082;SDS011;530;51.448;7.238;2022-11-18T10:05:22;6.40;;;4.33;;
1082;SDS011;530;51.448;7.238;2022-11-18T10:08:18;5.73;;;4.63;;
1082;SDS011;530;51.448;7.238;2022-11-18T10:19:28;5.33;;;4.50;;
1082;SDS011;530;51.448;7.238;2022-11-18T10:24:43;5.83;;;3.87;;
1082;SDS011;530;51.448;7.238;2022-11-18T10:27:13;5.40;;;4.60;;
1082;SDS011;530;51.448;7.238;2022-11-18T10:29:40;6.57;;;4.20;;
1082;SDS011;530;51.448;7.238;2022-11-18T10:32:10;4.90;;;3.67;;
1082;SDS011;530;51.448;7.238;2022-11-18T10:34:50;6.67;;;4.30;;
1082;SDS011;530;51.448;7.238;2022-11-18T10:37:32;5.27;;;4.00;;
1082;SDS011;530;51.448;7.238;2022-11-18T10:40:01;7.83;;;4.37;;
1082;SDS011;530;51.448;7.238;2022-11-18T10:42:36;5.33;;;4.37;;
1082;SDS011;530;51.448;7.238;2022-11-18T10:45:16;4.93;;;3.90;;
1082;SDS011;530;51.448;7.238;2022-11-18T10:50:43;5.20;;;3.60;;
1082;SDS011;530;51.448;7.238;2022-11-18T10:53:30;5.40;;;3.13;;
1082;SDS011;530;51.448;7.238;2022-11-18T10:56:04;5.03;;;3.60;;
1082;SDS011;530;51.448;7.238;2022-11-18T10:58:39;5.67;;;3.90;;
1082;SDS011;530;51.448;7.238;2022-11-18T11:01:09;4.73;;;2.93;;
1082;SDS011;530;51.448;7.238;2022-11-18T11:04:10;6.63;;;3.67;;
1082;SDS011;530;51.448;7.238;2022-11-18T11:06:42;3.43;;;3.13;;
1082;SDS011;530;51.448;7.238;2022-11-18T11:09:09;6.13;;;3.67;;
1082;SDS011;530;51.448;7.238;2022-11-18T11:14:47;7.33;;;3.80;;
1082;SDS011;530;51.448;7.238;2022-11-18T11:17:26;5.77;;;4.63;;
1082;SDS011;530;51.448;7.238;2022-11-18T11:22:40;7.17;;;3.80;;
1082;SDS011;530;51.448;7.238;2022-11-18T11:25:12;5.60;;;4.30;;
1082;SDS011;530;51.448;7.238;2022-11-18T11:30:40;6.57;;;3.70;;
1082;SDS011;530;51.448;7.238;2022-11-18T11:33:31;5.97;;;4.60;;
1082;SDS011;530;51.448;7.238;2022-11-18T11:41:55;7.90;;;3.70;;
1082;SDS011;530;51.448;7.238;2022-11-18T11:50:16;3.70;;;3.40;;
1082;SDS011;530;51.448;7.238;2022-11-18T11:55:27;6.90;;;3.70;;
1082;SDS011;530;51.448;7.238;2022-11-18T11:58:18;9.60;;;4.33;;
1082;SDS011;530;51.448;7.238;2022-11-18T12:03:59;5.57;;;4.03;;
1082;SDS011;530;51.448;7.238;2022-11-18T12:06:39;6.20;;;3.70;;
1082;SDS011;530;51.448;7.238;2022-11-18T12:15:17;4.47;;;2.77;;
1082;SDS011;530;51.448;7.238;2022-11-18T12:23:11;6.17;;;3.30;;
1082;SDS011;530;51.448;7.238;2022-11-18T12:33:59;6.40;;;2.20;;
1082;SDS011;530;51.448;7.238;2022-11-18T12:36:35;4.27;;;2.50;;
1082;SDS011;530;51.448;7.238;2022-11-18T12:42:01;3.83;;;2.50;;
1082;SDS011;530;51.448;7.238;2022-11-18T12:44:47;4.13;;;2.30;;
1082;SDS011;530;51.448;7.238;2022-11-18T12:47:15;5.10;;;2.70;;
1082;SDS011;530;51.448;7.238;2022-11-18T12:50:18;4.23;;;2.20;;
1082;SDS011;530;51.448;7.238;2022-11-18T12:52:45;3.43;;;2.23;;
1082;SDS011;530;51.448;7.238;2022-11-18T12:55:30;3.70;;;2.20;;
1082;SDS011;530;51.448;7.238;2022-11-18T12:57:57;4.60;;;2.47;;
1082;SDS011;530;51.448;7.238;2022-11-18T13:02:52;5.60;;;2.37;;
1082;SDS011;530;51.448;7.238;2022-11-18T13:05:21;5.63;;;2.30;;
1082;SDS011;530;51.448;7.238;2022-11-18T13:07:50;2.53;;;2.23;;
1082;SDS011;530;51.448;7.238;2022-11-18T13:10:39;5.97;;;2.67;;
1082;SDS011;530;51.448;7.238;2022-11-18T13:13:34;3.50;;;2.10;;
1082;SDS011;530;51.448;7.238;2022-11-18T13:16:03;5.80;;;2.77;;
1082;SDS011;530;51.448;7.238;2022-11-18T13:18:56;5.70;;;2.83;;
1082;SDS011;530;51.448;7.238;2022-11-18T13:21:23;4.30;;;2.13;;
1082;SDS011;530;51.448;7.238;2022-11-18T13:24:10;3.43;;;2.13;;
1082;SDS011;530;51.448;7.238;2022-11-18T13:26:38;4.50;;;2.10;;
1082;SDS011;530;51.448;7.238;2022-11-18T13:30:08;3.47;;;2.60;;
1082;SDS011;530;51.448;7.238;2022-11-18T13:32:23;4.83;;;2.63;;
1082;SDS011;530;51.448;7.238;2022-11-18T13:34:53;4.73;;;2.90;;
1082;SDS011;530;51.448;7.238;2022-11-18T13:37:27;4.90;;;2.00;;
1082;SDS011;530;51.448;7.238;2022-11-18T13:39:55;3.63;;;1.73;;
1082;SDS011;530;51.448;7.238;2022-11-18T13:42:22;10.00;;;2.30;;
1082;SDS011;530;51.448;7.238;2022-11-18T13:44:59;5.10;;;2.20;;
1082;SDS011;530;51.448;7.238;2022-11-18T13:55:22;4.67;;;2.33;;
1082;SDS011;530;51.448;7.238;2022-11-18T13:57:51;4.60;;;1.97;;
1082;SDS011;530;51.448;7.238;2022-11-18T14:00:28;4.30;;;2.03;;
1082;SDS011;530;51.448;7.238;2022-11-18T14:02:57;5.70;;;1.87;;
1082;SDS011;530;51.448;7.238;2022-11-18T14:05:29;5.10;;;2.00;;
1082;SDS011;530;51.448;7.238;2022-11-18T14:08:03;3.27;;;2.17;;
1082;SDS011;530;51.448;7.238;2022-11-18T14:10:40;4.43;;;2.03;;
1082;SDS011;530;51.448;7.238;2022-11-18T14:13:27;5.17;;;1.90;;
1082;SDS011;530;51.448;7.238;2022-11-18T14:15:56;6.17;;;2.37;;
1082;SDS011;530;51.448;7.238;2022-11-18T14:18:27;3.43;;;1.73;;
1082;SDS011;530;51.448;7.238;2022-11-18T14:20:56;3.63;;;2.00;;
1082;SDS011;530;51.448;7.238;2022-11-18T14:23:26;2.73;;;1.57;;
1082;SDS011;530;51.448;7.238;2022-11-18T14:26:04;2.83;;;1.93;;
1082;SDS011;530;51.448;7.238;2022-11-18T14:28:32;4.90;;;2.67;;
1082;SDS011;530;51.448;7.238;2022-11-18T14:31:02;2.53;;;1.90;;
1082;SDS011;530;51.448;7.238;2022-11-18T14:33:31;4.77;;;3.80;;
1082;SDS011;530;51.448;7.238;2022-11-18T14:36:10;4.90;;;3.10;;
1082;SDS011;530;51.448;7.238;2022-11-18T14:38:47;7.80;;;2.80;;
1082;SDS011;530;51.448;7.238;2022-11-18T14:41:15;4.23;;;2.20;;
1082;SDS011;530;51.448;7.238;2022-11-18T14:44:03;4.30;;;2.60;;
1082;SDS011;530;51.448;7.238;2022-11-18T14:46:29;5.67;;;3.33;;
1082;SDS011;530;51.448;7.238;2022-11-18T14:48:56;4.20;;;2.53;;
1082;SDS011;530;51.448;7.238;2022-11-18T14:51:22;7.23;;;3.03;;
1082;SDS011;530;51.448;7.238;2022-11-18T14:53:48;6.73;;;2.63;;
1082;SDS011;530;51.448;7.238;2022-11-18T14:56:16;8.13;;;2.47;;
1082;SDS011;530;51.448;7.238;2022-11-18T14:58:48;10.50;;;2.60;;
1082;SDS011;530;51.448;7.238;2022-11-18T15:01:13;7.07;;;2.17;;
1082;SDS011;530;51.448;7.238;2022-11-18T15:03:39;4.63;;;2.63;;
1082;SDS011;530;51.448;7.238;2022-11-18T15:06:12;3.30;;;2.13;;
1082;SDS011;530;51.448;7.238;2022-11-18T15:08:38;2.90;;;2.00;;
1082;SDS011;530;51.448;7.238;2022-11-18T15:11:06;8.73;;;2.23;;
1082;SDS011;530;51.448;7.238;2022-11-18T15:13:32;4.53;;;2.47;;
1082;SDS011;530;51.448;7.238;2022-11-18T15:15:58;2.53;;;2.10;;
1082;SDS011;530;51.448;7.238;2022-11-18T15:18:24;4.77;;;2.23;;
1082;SDS011;530;51.448;7.238;2022-11-18T15:20:50;5.40;;;3.20;;
1082;SDS011;530;51.448;7.238;2022-11-18T15:23:16;5.00;;;2.73;;
1082;SDS011;530;51.448;7.238;2022-11-18T15:25:41;4.27;;;2.57;;
1082;SDS011;530;51.448;7.238;2022-11-18T15:28:10;7.93;;;3.00;;
1082;SDS011;530;51.448;7.238;2022-11-18T15:30:36;3.40;;;2.40;;
1082;SDS011;530;51.448;7.238;2022-11-18T15:33:02;4.70;;;2.67;;
1082;SDS011;530;51.448;7.238;2022-11-18T15:35:28;3.50;;;2.93;;
1082;SDS011;530;51.448;7.238;2022-11-18T15:37:53;9.03;;;3.03;;
1082;SDS011;530;51.448;7.238;2022-11-18T15:40:19;6.17;;;2.47;;
1082;SDS011;530;51.448;7.238;2022-11-18T15:42:44;4.97;;;2.50;;
1082;SDS011;530;51.448;7.238;2022-11-18T15:45:10;6.90;;;2.97;;
1082;SDS011;530;51.448;7.238;2022-11-18T15:47:36;3.80;;;3.10;;
1082;SDS011;530;51.448;7.238;2022-11-18T15:50:01;4.30;;;3.13;;
1082;SDS011;530;51.448;7.238;2022-11-18T15:52:27;4.03;;;2.70;;
1082;SDS011;530;51.448;7.238;2022-11-18T15:54:53;3.07;;;2.70;;
1082;SDS011;530;51.448;7.238;2022-11-18T15:57:19;4.17;;;3.27;;
1082;SDS011;530;51.448;7.238;2022-11-18T15:59:45;6.90;;;3.00;;
1082;SDS011;530;51.448;7.238;2022-11-18T16:02:11;6.10;;;3.07;;
1082;SDS011;530;51.448;7.238;2022-11-18T16:04:36;3.93;;;2.67;;
1082;SDS011;530;51.448;7.238;2022-11-18T16:07:03;6.30;;;3.60;;
1082;SDS011;530;51.448;7.238;2022-11-18T16:09:29;6.93;;;3.53;;
1082;SDS011;530;51.448;7.238;2022-11-18T16:12:14;8.60;;;3.30;;
1082;SDS011;530;51.448;7.238;2022-11-18T16:14:59;8.80;;;3.67;;
1082;SDS011;530;51.448;7.238;2022-11-18T16:17:43;5.80;;;3.60;;
1082;SDS011;530;51.448;7.238;2022-11-18T16:20:09;7.63;;;4.37;;
1082;SDS011;530;51.448;7.238;2022-11-18T16:22:35;5.43;;;3.50;;
1082;SDS011;530;51.448;7.238;2022-11-18T16:25:01;7.13;;;3.90;;
1082;SDS011;530;51.448;7.238;2022-11-18T16:27:26;5.13;;;3.93;;
1082;SDS011;530;51.448;7.238;2022-11-18T16:29:52;8.10;;;4.33;;
1082;SDS011;530;51.448;7.238;2022-11-18T16:32:18;7.43;;;4.00;;
1082;SDS011;530;51.448;7.238;2022-11-18T16:34:43;7.83;;;4.90;;
1082;SDS011;530;51.448;7.238;2022-11-18T16:37:09;7.57;;;4.47;;
1082;SDS011;530;51.448;7.238;2022-11-18T16:39:35;6.67;;;3.70;;
1082;SDS011;530;51.448;7.238;2022-11-18T16:42:01;5.33;;;4.20;;
1082;SDS011;530;51.448;7.238;2022-11-18T16:44:26;4.63;;;4.00;;
1082;SDS011;530;51.448;7.238;2022-11-18T16:46:53;8.10;;;5.90;;
1082;SDS011;530;51.448;7.238;2022-11-18T16:49:21;6.70;;;5.70;;
1082;SDS011;530;51.448;7.238;2022-11-18T16:51:49;7.27;;;5.07;;
1082;SDS011;530;51.448;7.238;2022-11-18T16:54:16;7.13;;;4.40;;
1082;SDS011;530;51.448;7.238;2022-11-18T16:56:49;7.90;;;5.23;;
1082;SDS011;530;51.448;7.238;2022-11-18T16:59:17;6.00;;;4.80;;
1082;SDS011;530;51.448;7.238;2022-11-18T17:01:47;9.20;;;4.97;;
1082;SDS011;530;51.448;7.238;2022-11-18T17:04:16;10.03;;;4.43;;
1082;SDS011;530;51.448;7.238;2022-11-18T17:06:43;7.87;;;5.60;;
1082;SDS011;530;51.448;7.238;2022-11-18T17:09:11;6.67;;;5.90;;
1082;SDS011;530;51.448;7.238;2022-11-18T17:11:38;8.70;;;6.80;;
1082;SDS011;530;51.448;7.238;2022-11-18T17:14:04;8.63;;;7.20;;
1082;SDS011;530;51.448;7.238;2022-11-18T17:16:29;10.00;;;7.13;;
1082;SDS011;530;51.448;7.238;2022-11-18T17:18:56;8.80;;;6.50;;
1082;SDS011;530;51.448;7.238;2022-11-18T17:21:24;7.27;;;5.50;;
1082;SDS011;530;51.448;7.238;2022-11-18T17:23:51;7.70;;;6.20;;
1082;SDS011;530;51.448;7.238;2022-11-18T17:26:19;7.63;;;5.67;;
1082;SDS011;530;51.448;7.238;2022-11-18T17:28:46;7.30;;;5.50;;
1082;SDS011;530;51.448;7.238;2022-11-18T17:31:14;11.13;;;6.50;;